Time;durP1;ratioP1;P1;durP2;ratioP2;P2;SDS_P1;SDS_P2;PMS_P1;PMS_P2;Temp;Humidity;BMP_temperature;BMP_pressure;BME280_temperature;BME280_humidity;BME280_pressure;Samples;Min_cycle;Max_cycle;Signal;HPM_P1;HPM_P2
2021/04/09 00:02:14;;;;;;;31.05;19.30;;;;;;;-145.19;100.00;59999.88;5011679;28;20109;-68
2021/04/09 00:04:41;;;;;;;32.30;21.08;;;;;;;-145.19;100.00;59999.88;5010297;28;20057;-66
2021/04/09 00:07:07;;;;;;;28.30;19.65;;;;;;;-145.19;100.00;59999.88;5026142;28;20436;-69
2021/04/09 00:09:34;;;;;;;30.92;18.95;;;;;;;-145.19;100.00;59999.88;5008910;28;20532;-68
2021/04/09 00:12:01;;;;;;;33.70;20.27;;;;;;;-145.19;100.00;59999.88;5016104;28;20097;-68
2021/04/09 00:14:27;;;;;;;26.88;17.75;;;;;;;-145.19;100.00;59999.88;5010863;28;20125;-68
2021/04/09 00:16:53;;;;;;;27.60;18.10;;;;;;;-145.19;100.00;59999.88;5009495;28;20541;-69
2021/04/09 00:19:24;;;;;;;31.70;19.25;;;;;;;-145.19;100.00;59999.88;5009317;28;20371;-68
2021/04/09 00:21:50;;;;;;;30.52;18.88;;;;;;;-145.19;100.00;59999.88;5006868;28;20046;-68
2021/04/09 00:24:17;;;;;;;29.77;19.33;;;;;;;-145.19;100.00;59999.88;5010417;28;20041;-68
2021/04/09 00:26:43;;;;;;;33.60;18.73;;;;;;;-145.19;100.00;59999.88;4998574;28;20125;-68
2021/04/09 00:29:09;;;;;;;29.15;18.33;;;;;;;-145.19;100.00;59999.88;5012576;28;20116;-68
2021/04/09 00:31:36;;;;;;;29.92;19.85;;;;;;;-145.19;100.00;59999.88;5012060;28;20121;-68
2021/04/09 00:34:04;;;;;;;33.57;19.47;;;;;;;-145.19;100.00;59999.88;5010740;28;20050;-68
2021/04/09 00:36:35;;;;;;;32.05;19.17;;;;;;;-145.19;100.00;59999.88;5010971;28;20080;-67
2021/04/09 00:39:04;;;;;;;32.83;20.70;;;;;;;-145.19;100.00;59999.88;5008962;28;20064;-69
2021/04/09 00:41:31;;;;;;;33.90;19.92;;;;;;;-145.19;100.00;59999.88;5015058;28;20084;-68
2021/04/09 00:43:57;;;;;;;34.17;22.05;;;;;;;-145.19;100.00;59999.88;5026976;28;20041;-68
2021/04/09 00:46:24;;;;;;;29.90;18.92;;;;;;;-145.19;100.00;59999.88;5011320;28;20034;-69
2021/04/09 00:48:50;;;;;;;26.92;17.92;;;;;;;-145.19;100.00;59999.88;5013319;28;20101;-68
2021/04/09 00:51:20;;;;;;;30.95;17.58;;;;;;;-145.19;100.00;59999.88;5012537;28;20045;-69
2021/04/09 00:53:46;;;;;;;31.40;19.98;;;;;;;-145.19;100.00;59999.88;5013977;28;20061;-68
2021/04/09 00:56:16;;;;;;;30.25;19.65;;;;;;;-145.19;100.00;59999.88;5011215;28;20064;-70
2021/04/09 00:58:44;;;;;;;30.23;20.10;;;;;;;-145.19;100.00;59999.88;5011181;28;20060;-68
2021/04/09 01:01:10;;;;;;;;;;;;;;;-145.19;100.00;59999.88;5012047;28;20096;-68
2021/04/09 01:03:38;;;;;;;31.35;19.92;;;;;;;-145.19;100.00;59999.88;5012732;28;19936;-69
2021/04/09 01:06:04;;;;;;;35.15;19.58;;;;;;;-145.19;100.00;59999.88;5002901;28;20108;-69
2021/04/09 01:08:30;;;;;;;29.83;18.75;;;;;;;-145.19;100.00;59999.88;5025424;28;20495;-69
2021/04/09 01:10:57;;;;;;;28.02;18.60;;;;;;;-145.19;100.00;59999.88;5009243;28;20076;-68
2021/04/09 01:13:23;;;;;;;27.33;18.02;;;;;;;-145.19;100.00;59999.88;5012049;28;20125;-69
2021/04/09 01:15:51;;;;;;;28.42;19.52;;;;;;;-145.19;100.00;59999.88;5011134;28;20034;-69
2021/04/09 01:18:40;;;;;;;31.80;18.92;;;;;;;-145.19;100.00;59999.88;5006821;28;20046;-68
2021/04/09 01:21:09;;;;;;;;;;;;;;;-145.19;100.00;59999.88;5007305;28;20117;-68
2021/04/09 01:23:42;;;;;;;;;;;;;;;-145.19;100.00;59999.88;5009353;28;19922;-66
2021/04/09 01:27:07;;;;;;;32.30;20.65;;;;;;;-145.19;100.00;59999.88;5010311;28;20004;-68
2021/04/09 01:30:02;;;;;;;32.38;21.40;;;;;;;-145.19;100.00;59999.88;4965524;28;20054;-68
2021/04/09 01:32:29;;;;;;;28.92;19.60;;;;;;;-145.19;100.00;59999.88;5005065;28;20077;-68
2021/04/09 01:35:16;;;;;;;28.77;20.25;;;;;;;-145.19;100.00;59999.88;5006904;28;20137;-68
2021/04/09 01:37:49;;;;;;;33.25;21.02;;;;;;;-145.19;100.00;59999.88;5006645;28;20034;-67
2021/04/09 01:40:19;;;;;;;27.55;18.50;;;;;;;-145.19;100.00;59999.88;5003672;28;20054;-68
2021/04/09 01:42:54;;;;;;;33.17;20.20;;;;;;;-145.19;100.00;59999.88;5010780;28;20080;-68
2021/04/09 01:45:23;;;;;;;30.25;18.52;;;;;;;-145.19;100.00;59999.88;5010514;28;20077;-67
2021/04/09 01:47:56;;;;;;;31.25;20.33;;;;;;;-145.19;100.00;59999.88;5007648;28;20073;-68
2021/04/09 01:50:25;;;;;;;34.85;20.05;;;;;;;-145.19;100.00;59999.88;5011772;28;20045;-68
2021/04/09 01:52:53;;;;;;;32.92;19.77;;;;;;;-145.19;100.00;59999.88;5008673;28;20077;-68
2021/04/09 01:55:22;;;;;;;31.85;21.35;;;;;;;-145.19;100.00;59999.88;5006399;28;20088;-67
2021/04/09 01:57:49;;;;;;;30.40;19.30;;;;;;;-145.19;100.00;59999.88;5008756;28;20054;-67
2021/04/09 02:00:23;;;;;;;35.33;21.08;;;;;;;-145.19;100.00;59999.88;5007431;28;20073;-68
2021/04/09 02:02:50;;;;;;;33.50;22.77;;;;;;;-145.19;100.00;59999.88;5009614;28;20073;-68
2021/04/09 02:05:20;;;;;;;33.25;22.23;;;;;;;-145.19;100.00;59999.88;5012980;28;20072;-68
2021/04/09 02:07:47;;;;;;;30.27;20.20;;;;;;;-145.19;100.00;59999.88;5009707;28;20038;-68
2021/04/09 02:10:14;;;;;;;30.42;21.08;;;;;;;-145.19;100.00;59999.88;5026718;28;20054;-68
2021/04/09 02:12:44;;;;;;;35.85;23.08;;;;;;;-145.19;100.00;59999.88;5027406;28;20053;-67
2021/04/09 02:15:14;;;;;;;33.97;20.20;;;;;;;-145.19;100.00;59999.88;5009743;28;20065;-68
2021/04/09 02:17:43;;;;;;;29.83;20.75;;;;;;;-145.19;100.00;59999.88;5006621;28;20042;-68
2021/04/09 02:20:15;;;;;;;29.13;18.60;;;;;;;-145.19;100.00;59999.88;5010244;28;20038;-68
2021/04/09 02:22:42;;;;;;;29.38;19.38;;;;;;;-145.19;100.00;59999.88;5011014;28;20066;-68
2021/04/09 02:25:10;;;;;;;28.63;18.38;;;;;;;-145.19;100.00;59999.88;5020933;28;20073;-69
2021/04/09 02:27:36;;;;;;;27.27;19.27;;;;;;;-145.19;100.00;59999.88;5005796;28;20057;-68
2021/04/09 02:30:08;;;;;;;30.52;19.48;;;;;;;-145.19;100.00;59999.88;5007068;28;20050;-68
2021/04/09 02:32:34;;;;;;;33.97;22.15;;;;;;;-145.19;100.00;59999.88;5005861;28;20160;-68
2021/04/09 02:35:00;;;;;;;40.72;25.77;;;;;;;-145.19;100.00;59999.88;5019973;28;20088;-68
2021/04/09 02:37:27;;;;;;;36.10;24.52;;;;;;;-145.19;100.00;59999.88;5008689;28;20041;-69
2021/04/09 02:39:56;;;;;;;30.00;20.85;;;;;;;-145.19;100.00;59999.88;5007858;28;20122;-69
2021/04/09 02:42:23;;;;;;;38.08;23.52;;;;;;;-145.19;100.00;59999.88;5002247;28;20046;-68
2021/04/09 02:44:51;;;;;;;30.05;19.65;;;;;;;-145.19;100.00;59999.88;5005196;28;20065;-68
2021/04/09 02:47:24;;;;;;;32.05;22.02;;;;;;;-145.19;100.00;59999.88;5003685;28;20121;-68
2021/04/09 02:50:04;;;;;;;33.42;20.33;;;;;;;-145.19;100.00;59999.88;5006739;28;20572;-69
2021/04/09 02:52:34;;;;;;;31.38;20.67;;;;;;;-145.19;100.00;59999.88;5005943;28;20049;-68
2021/04/09 02:55:07;;;;;;;30.05;19.65;;;;;;;-145.19;100.00;59999.88;5000744;28;20050;-70
2021/04/09 02:57:34;;;;;;;28.67;19.80;;;;;;;-145.19;100.00;59999.88;5010264;28;20468;-68
2021/04/09 03:00:05;;;;;;;31.63;20.88;;;;;;;-145.19;100.00;59999.88;5003078;28;20416;-68
2021/04/09 03:02:32;;;;;;;27.80;19.17;;;;;;;-145.19;100.00;59999.88;5009952;28;20061;-68
2021/04/09 03:04:59;;;;;;;35.30;23.40;;;;;;;-145.19;100.00;59999.88;5006840;28;20042;-68
2021/04/09 03:07:25;;;;;;;25.02;16.70;;;;;;;-145.19;100.00;59999.88;4998900;28;20066;-68
2021/04/09 03:09:51;;;;;;;30.75;18.00;;;;;;;-145.19;100.00;59999.88;5001379;28;20054;-68
2021/04/09 03:12:19;;;;;;;28.85;18.65;;;;;;;-145.19;100.00;59999.88;5007850;28;20039;-68
2021/04/09 03:14:50;;;;;;;28.45;18.13;;;;;;;-145.19;100.00;59999.88;5003344;28;20045;-67
2021/04/09 03:17:36;;;;;;;34.38;23.05;;;;;;;-145.19;100.00;59999.88;5007067;28;20045;-71
2021/04/09 03:20:04;;;;;;;33.80;23.13;;;;;;;-145.19;100.00;59999.88;5010395;28;20101;-67
2021/04/09 03:22:31;;;;;;;33.35;21.65;;;;;;;-145.19;100.00;59999.88;5008985;28;20073;-68
2021/04/09 03:24:58;;;;;;;39.83;22.58;;;;;;;-145.19;100.00;59999.88;5009311;28;20137;-68
2021/04/09 03:27:25;;;;;;;37.25;21.23;;;;;;;-145.19;100.00;59999.88;5003245;28;20497;-69
2021/04/09 03:29:51;;;;;;;31.15;23.48;;;;;;;-145.19;100.00;59999.88;5005981;28;20128;-68
2021/04/09 03:32:17;;;;;;;30.20;20.55;;;;;;;-145.19;100.00;59999.88;5008019;28;20038;-68
2021/04/09 03:34:44;;;;;;;27.50;18.00;;;;;;;-145.19;100.00;59999.88;5008016;28;20050;-68
2021/04/09 03:37:10;;;;;;;29.08;18.60;;;;;;;-145.19;100.00;59999.88;5006264;28;20041;-68
2021/04/09 03:39:36;;;;;;;28.17;18.50;;;;;;;-145.19;100.00;59999.88;5007894;28;20106;-68
2021/04/09 03:42:04;;;;;;;31.83;18.67;;;;;;;-145.19;100.00;59999.88;5008084;28;20125;-68
2021/04/09 03:44:31;;;;;;;31.27;20.48;;;;;;;-145.19;100.00;59999.88;5008390;28;20049;-68
2021/04/09 03:46:57;;;;;;;31.42;18.30;;;;;;;-145.19;100.00;59999.88;5009850;28;20101;-67
2021/04/09 03:49:24;;;;;;;33.13;22.92;;;;;;;-145.19;100.00;59999.88;5011813;28;20085;-67
2021/04/09 03:51:50;;;;;;;32.53;20.27;;;;;;;-145.19;100.00;59999.88;5001730;28;20094;-68
2021/04/09 03:54:16;;;;;;;27.67;18.77;;;;;;;-145.19;100.00;59999.88;5008274;28;20042;-67
2021/04/09 03:56:43;;;;;;;30.90;20.42;;;;;;;-145.19;100.00;59999.88;4993398;28;20641;-67
2021/04/09 03:59:09;;;;;;;31.58;20.30;;;;;;;-145.19;100.00;59999.88;5007082;28;20108;-67
2021/04/09 04:01:35;;;;;;;34.67;22.25;;;;;;;-145.19;100.00;59999.88;5009103;28;20062;-67
2021/04/09 04:04:01;;;;;;;35.65;21.80;;;;;;;-145.19;100.00;59999.88;5008175;28;20603;-67
2021/04/09 04:06:27;;;;;;;31.25;19.35;;;;;;;-145.19;100.00;59999.88;5009093;28;20386;-67
2021/04/09 04:08:53;;;;;;;30.25;20.88;;;;;;;-145.19;100.00;59999.88;5010701;28;20050;-67
2021/04/09 04:11:20;;;;;;;30.95;20.95;;;;;;;-145.19;100.00;59999.88;5011618;28;20053;-67
2021/04/09 04:13:46;;;;;;;35.22;20.85;;;;;;;-145.19;100.00;59999.88;5010694;28;20050;-68
2021/04/09 04:16:13;;;;;;;30.25;20.65;;;;;;;-145.19;100.00;59999.88;5006174;28;20499;-67
2021/04/09 04:18:40;;;;;;;36.83;21.33;;;;;;;-145.19;100.00;59999.88;5013731;28;20057;-67
2021/04/09 04:21:06;;;;;;;32.25;20.50;;;;;;;-145.19;100.00;59999.88;5005976;28;20042;-69
2021/04/09 04:23:32;;;;;;;58.88;37.72;;;;;;;-145.19;100.00;59999.88;5008480;28;20061;-67
2021/04/09 04:25:58;;;;;;;42.35;28.65;;;;;;;-145.19;100.00;59999.88;5011528;28;20042;-69
2021/04/09 04:28:27;;;;;;;35.65;22.23;;;;;;;-145.19;100.00;59999.88;5008145;28;20050;-67
2021/04/09 04:30:55;;;;;;;41.83;27.63;;;;;;;-145.19;100.00;59999.88;5007915;28;20053;-67
2021/04/09 04:33:23;;;;;;;48.92;27.00;;;;;;;-145.19;100.00;59999.88;5021980;28;20068;-68
2021/04/09 04:35:51;;;;;;;37.80;23.67;;;;;;;-145.19;100.00;59999.88;5008114;28;20046;-68
2021/04/09 04:38:19;;;;;;;34.53;23.55;;;;;;;-145.19;100.00;59999.88;5004797;28;20541;-67
2021/04/09 04:40:45;;;;;;;34.15;21.60;;;;;;;-145.19;100.00;59999.88;5014154;28;20120;-68
2021/04/09 04:43:12;;;;;;;34.75;23.30;;;;;;;-145.19;100.00;59999.88;5010057;28;20050;-68
2021/04/09 04:45:39;;;;;;;33.78;21.60;;;;;;;-145.19;100.00;59999.88;5012848;28;20054;-67
2021/04/09 04:48:06;;;;;;;50.75;30.10;;;;;;;-145.19;100.00;59999.88;5008612;28;20064;-68
2021/04/09 04:50:33;;;;;;;42.22;26.40;;;;;;;-145.19;100.00;59999.88;5015837;28;20056;-67
2021/04/09 04:53:00;;;;;;;37.42;25.58;;;;;;;-145.19;100.00;59999.88;5010326;28;20047;-67
2021/04/09 04:55:27;;;;;;;38.85;24.40;;;;;;;-145.19;100.00;59999.88;5013050;28;20045;-68
2021/04/09 04:57:54;;;;;;;;;;;;;;;-145.19;100.00;59999.88;5015304;28;20282;-69
2021/04/09 05:00:21;;;;;;;36.60;23.27;;;;;;;-145.19;100.00;59999.88;5013007;28;19991;-68
2021/04/09 05:02:47;;;;;;;45.30;28.43;;;;;;;-145.19;100.00;59999.88;5015993;28;20077;-67
2021/04/09 05:05:15;;;;;;;43.90;28.83;;;;;;;-145.19;100.00;59999.88;5011646;28;20041;-68
2021/04/09 05:07:43;;;;;;;35.40;23.40;;;;;;;-145.19;100.00;59999.88;5008620;28;20108;-66
2021/04/09 05:10:11;;;;;;;40.75;27.30;;;;;;;-145.19;100.00;59999.88;5010276;28;20077;-65
2021/04/09 05:12:37;;;;;;;42.58;25.83;;;;;;;-145.19;100.00;59999.88;5010998;28;20057;-65
2021/04/09 05:15:05;;;;;;;42.00;23.63;;;;;;;-145.19;100.00;59999.88;5005444;28;20065;-67
2021/04/09 05:17:31;;;;;;;37.08;23.20;;;;;;;-145.19;100.00;59999.88;5026244;28;20096;-67
2021/04/09 05:19:58;;;;;;;37.45;22.77;;;;;;;-145.19;100.00;59999.88;5011653;28;20042;-67
2021/04/09 05:22:24;;;;;;;34.97;22.92;;;;;;;-145.19;100.00;59999.88;5004462;28;20046;-67
2021/04/09 05:24:50;;;;;;;38.17;24.55;;;;;;;-145.19;100.00;59999.88;5011056;28;20081;-65
2021/04/09 05:27:16;;;;;;;39.17;26.23;;;;;;;-145.19;100.00;59999.88;5005967;28;20053;-67
2021/04/09 05:29:43;;;;;;;50.07;30.30;;;;;;;-145.19;100.00;59999.88;5007145;28;20074;-68
2021/04/09 05:32:13;;;;;;;42.08;28.63;;;;;;;-145.19;100.00;59999.88;5022304;28;20196;-70
2021/04/09 05:34:40;;;;;;;41.50;25.55;;;;;;;-145.19;100.00;59999.88;4997379;28;20521;-72
2021/04/09 05:37:07;;;;;;;40.40;25.23;;;;;;;-145.19;100.00;59999.88;5004046;28;20093;-69
2021/04/09 05:39:36;;;;;;;39.88;25.48;;;;;;;-145.19;100.00;59999.88;5007344;28;20720;-68
2021/04/09 05:42:04;;;;;;;32.05;22.70;;;;;;;-145.19;100.00;59999.88;5003353;28;20073;-70
2021/04/09 05:44:33;;;;;;;37.80;22.10;;;;;;;-145.19;100.00;59999.88;5002786;28;20418;-69
2021/04/09 05:47:08;;;;;;;35.72;22.67;;;;;;;-145.19;100.00;59999.88;5004796;28;20046;-71
2021/04/09 05:49:34;;;;;;;42.55;24.52;;;;;;;-145.19;100.00;59999.88;4998293;28;20046;-70
2021/04/09 05:52:06;;;;;;;36.50;22.13;;;;;;;-145.19;100.00;59999.88;5000662;28;20069;-66
2021/04/09 05:54:33;;;;;;;38.05;25.20;;;;;;;-145.19;100.00;59999.88;5001770;28;20081;-68
2021/04/09 05:56:59;;;;;;;42.42;27.80;;;;;;;-145.19;100.00;59999.88;5004696;28;20054;-69
2021/04/09 05:59:26;;;;;;;35.85;22.88;;;;;;;-145.19;100.00;59999.88;5004459;28;20046;-68
2021/04/09 06:01:52;;;;;;;39.63;25.03;;;;;;;-145.19;100.00;59999.88;5001952;28;20042;-68
2021/04/09 06:04:20;;;;;;;34.05;21.75;;;;;;;-145.19;100.00;59999.88;5000856;28;21011;-67
2021/04/09 06:06:46;;;;;;;36.92;20.27;;;;;;;-145.19;100.00;59999.88;5001940;28;20421;-67
2021/04/09 06:09:12;;;;;;;24.88;17.15;;;;;;;-145.19;100.00;59999.88;5004767;28;20042;-67
2021/04/09 06:11:38;;;;;;;21.52;15.80;;;;;;;-145.19;100.00;59999.88;5006090;28;20125;-67
2021/04/09 06:14:04;;;;;;;26.67;17.45;;;;;;;-145.19;100.00;59999.88;5003676;28;20129;-67
2021/04/09 06:16:30;;;;;;;24.83;18.98;;;;;;;-145.19;100.00;59999.88;4999789;28;20046;-66
2021/04/09 06:18:57;;;;;;;24.38;17.20;;;;;;;-145.19;100.00;59999.88;4999592;28;20052;-68
2021/04/09 06:21:23;;;;;;;22.60;15.83;;;;;;;-145.19;100.00;59999.88;5004429;28;20045;-68
2021/04/09 06:23:49;;;;;;;27.98;17.63;;;;;;;-145.19;100.00;59999.88;5005959;28;20285;-68
2021/04/09 06:26:15;;;;;;;24.15;16.75;;;;;;;-145.19;100.00;59999.88;5008351;28;20069;-68
2021/04/09 06:28:42;;;;;;;23.63;16.73;;;;;;;-145.19;100.00;59999.88;5004993;28;20053;-70
2021/04/09 06:31:08;;;;;;;19.13;14.35;;;;;;;-145.19;100.00;59999.88;5003072;28;20129;-69
2021/04/09 06:33:53;;;;;;;26.02;14.10;;;;;;;-145.19;100.00;59999.88;5007855;28;20042;-68
2021/04/09 06:36:19;;;;;;;19.70;13.98;;;;;;;-145.19;100.00;59999.88;5007478;28;20046;-69
2021/04/09 06:38:45;;;;;;;19.27;12.23;;;;;;;-145.19;100.00;59999.88;5003677;28;20042;-68
2021/04/09 06:41:12;;;;;;;15.63;12.23;;;;;;;-145.19;100.00;59999.88;5006292;28;20129;-68
2021/04/09 06:43:39;;;;;;;15.02;11.45;;;;;;;-145.19;100.00;59999.88;5006359;28;20397;-68
2021/04/09 06:46:05;;;;;;;19.35;13.20;;;;;;;-145.19;100.00;59999.88;5004753;28;20103;-68
2021/04/09 06:48:32;;;;;;;16.85;12.55;;;;;;;-145.19;100.00;59999.88;5008269;28;20072;-68
2021/04/09 06:50:59;;;;;;;18.05;11.98;;;;;;;-145.19;100.00;59999.88;5002488;28;20053;-67
2021/04/09 06:53:27;;;;;;;13.82;10.82;;;;;;;-145.19;100.00;59999.88;5005108;28;20117;-68
2021/04/09 06:55:54;;;;;;;;;;;;;;;-145.19;100.00;59999.88;5009035;28;20107;-67
2021/04/09 06:58:20;;;;;;;16.10;10.70;;;;;;;-145.19;100.00;59999.88;5008195;28;19929;-66
2021/04/09 07:00:50;;;;;;;14.75;9.93;;;;;;;-145.19;100.00;59999.88;5006793;28;20050;-66
2021/04/09 07:03:16;;;;;;;14.85;9.43;;;;;;;-145.19;100.00;59999.88;5004267;28;20048;-67
2021/04/09 07:05:43;;;;;;;14.95;9.65;;;;;;;-145.19;100.00;59999.88;5003647;28;20108;-68
2021/04/09 07:08:09;;;;;;;12.77;8.65;;;;;;;-145.19;100.00;59999.88;5007850;28;20270;-66
2021/04/09 07:10:35;;;;;;;13.10;8.65;;;;;;;-145.19;100.00;59999.88;5007342;28;20128;-66
2021/04/09 07:13:04;;;;;;;14.82;8.95;;;;;;;-145.19;100.00;59999.88;5005305;28;20045;-67
2021/04/09 07:15:46;;;;;;;13.60;8.38;;;;;;;-145.19;100.00;59999.88;5004718;28;20042;-69
2021/04/09 07:18:15;;;;;;;12.95;8.68;;;;;;;-145.19;100.00;59999.88;5007285;28;20038;-69
2021/04/09 07:20:43;;;;;;;11.75;8.43;;;;;;;-145.19;100.00;59999.88;5002731;28;20640;-68
2021/04/09 07:23:12;;;;;;;12.63;8.20;;;;;;;-145.19;100.00;59999.88;5004223;28;20104;-69
2021/04/09 07:25:45;;;;;;;12.82;8.63;;;;;;;-145.19;100.00;59999.88;5003657;28;20427;-65
2021/04/09 07:28:20;;;;;;;14.32;8.65;;;;;;;-145.19;100.00;59999.88;5005590;28;20526;-64
2021/04/09 07:30:51;;;;;;;15.18;8.65;;;;;;;-145.19;100.00;59999.88;5007216;28;20046;-64
2021/04/09 07:33:22;;;;;;;12.80;8.35;;;;;;;-145.19;100.00;59999.88;5003629;28;20403;-63
2021/04/09 07:35:56;;;;;;;18.35;8.82;;;;;;;-145.19;100.00;59999.88;5001962;28;20046;-64
2021/04/09 07:38:26;;;;;;;18.48;8.00;;;;;;;-145.19;100.00;59999.88;5004205;28;20042;-66
2021/04/09 07:40:56;;;;;;;12.40;7.07;;;;;;;-145.19;100.00;59999.88;5002489;28;20141;-65
2021/04/09 07:43:24;;;;;;;12.15;7.38;;;;;;;-145.19;100.00;59999.88;5004824;28;20060;-64
2021/04/09 07:45:56;;;;;;;9.98;6.97;;;;;;;-145.19;100.00;59999.88;5005917;28;20044;-64
2021/04/09 07:48:37;;;;;;;10.60;7.13;;;;;;;-145.19;100.00;59999.88;5002139;28;20100;-65
2021/04/09 07:51:08;;;;;;;10.25;6.22;;;;;;;-145.19;100.00;59999.88;5002679;28;20491;-64
2021/04/09 07:53:34;;;;;;;9.57;6.10;;;;;;;-145.19;100.00;59999.88;5007310;28;20126;-65
2021/04/09 07:56:09;;;;;;;10.43;5.05;;;;;;;-145.19;100.00;59999.88;5005072;28;20056;-63
2021/04/09 07:58:36;;;;;;;7.78;5.30;;;;;;;-145.19;100.00;59999.88;5003105;28;20057;-66
2021/04/09 08:01:04;;;;;;;8.82;5.18;;;;;;;-145.19;100.00;59999.88;5006701;28;20050;-65
2021/04/09 08:03:34;;;;;;;8.75;4.85;;;;;;;-145.19;100.00;59999.88;5009015;28;20136;-65
2021/04/09 08:06:08;;;;;;;9.30;4.80;;;;;;;-145.19;100.00;59999.88;5005256;28;20137;-65
2021/04/09 08:08:36;;;;;;;6.88;4.53;;;;;;;-145.19;100.00;59999.88;5004249;28;20088;-64
2021/04/09 08:11:21;;;;;;;8.55;4.47;;;;;;;-145.19;100.00;59999.88;4996582;28;20554;-63
2021/04/09 08:13:58;;;;;;;7.35;4.80;;;;;;;-145.19;100.00;59999.88;4987735;28;20525;-64
2021/04/09 08:16:33;;;;;;;9.48;4.70;;;;;;;-145.19;100.00;59999.88;5004226;28;20073;-65
2021/04/09 08:19:04;;;;;;;7.25;4.88;;;;;;;-145.19;100.00;59999.88;5008736;28;20054;-65
2021/04/09 08:21:32;;;;;;;12.45;4.93;;;;;;;-145.19;100.00;59999.88;5008802;28;20054;-64
2021/04/09 08:23:59;;;;;;;8.63;5.00;;;;;;;-145.19;100.00;59999.88;5005046;28;20042;-65
2021/04/09 08:26:27;;;;;;;6.13;4.93;;;;;;;-145.19;100.00;59999.88;5008611;28;20121;-63
2021/04/09 08:28:55;;;;;;;7.68;4.97;;;;;;;-145.19;100.00;59999.88;5002344;28;20065;-63
2021/04/09 08:31:22;;;;;;;17.00;4.82;;;;;;;-145.19;100.00;59999.88;4999652;28;20057;-64
2021/04/09 08:33:49;;;;;;;15.35;4.78;;;;;;;-145.19;100.00;59999.88;5001240;28;20046;-65
2021/04/09 08:36:16;;;;;;;8.02;4.32;;;;;;;-145.19;100.00;59999.88;5001921;28;20042;-65
2021/04/09 08:38:43;;;;;;;10.88;5.00;;;;;;;-145.19;100.00;59999.88;5004935;28;20105;-63
2021/04/09 08:41:10;;;;;;;;;;;;;;;-145.19;100.00;59999.88;5005418;28;20550;-64
2021/04/09 08:43:38;;;;;;;8.57;4.68;;;;;;;-145.19;100.00;59999.88;5009643;28;19936;-64
2021/04/09 08:46:07;;;;;;;6.95;4.28;;;;;;;-145.19;100.00;59999.88;5005164;28;20049;-64
2021/04/09 08:48:37;;;;;;;7.90;4.50;;;;;;;-145.19;100.00;59999.88;5004754;28;20042;-65
2021/04/09 08:51:05;;;;;;;8.45;4.30;;;;;;;-145.19;100.00;59999.88;5005086;28;20736;-64
2021/04/09 08:53:32;;;;;;;8.43;4.68;;;;;;;-145.19;100.00;59999.88;5007297;28;20048;-64
2021/04/09 08:55:58;;;;;;;6.78;4.90;;;;;;;-145.19;100.00;59999.88;5005617;28;20136;-66
2021/04/09 08:58:25;;;;;;;6.47;4.75;;;;;;;-145.19;100.00;59999.88;5002811;28;20042;-63
2021/04/09 09:00:53;;;;;;;7.25;5.15;;;;;;;-145.19;100.00;59999.88;5006679;28;20069;-65
2021/04/09 09:03:22;;;;;;;7.40;4.07;;;;;;;-145.19;100.00;59999.88;5004516;28;20069;-63
2021/04/09 09:05:55;;;;;;;7.00;4.68;;;;;;;-145.19;100.00;59999.88;5001685;28;20560;-65
2021/04/09 09:08:21;;;;;;;16.67;4.75;;;;;;;-145.19;100.00;59999.88;5008766;28;20034;-64
2021/04/09 09:10:48;;;;;;;8.73;4.70;;;;;;;-145.19;100.00;59999.88;5003008;28;20058;-64
2021/04/09 09:13:17;;;;;;;6.82;4.63;;;;;;;-145.19;100.00;59999.88;5003995;28;20140;-64
2021/04/09 09:15:46;;;;;;;7.00;4.70;;;;;;;-145.19;100.00;59999.88;5005063;28;20042;-64
2021/04/09 09:18:21;;;;;;;4.80;3.83;;;;;;;-145.19;100.00;59999.88;5004001;28;20422;-64
2021/04/09 09:21:01;;;;;;;6.55;4.07;;;;;;;-145.19;100.00;59999.88;5008703;28;20133;-64
2021/04/09 09:23:54;;;;;;;7.03;4.05;;;;;;;-145.19;100.00;59999.88;5010416;28;20069;-64
2021/04/09 09:26:40;;;;;;;6.35;3.53;;;;;;;-145.19;100.00;59999.88;5005866;28;20133;-65
2021/04/09 09:29:27;;;;;;;14.13;4.25;;;;;;;-145.19;100.00;59999.88;5003403;28;20081;-65
2021/04/09 09:32:06;;;;;;;5.22;3.63;;;;;;;-145.19;100.00;59999.88;5004540;28;20053;-65
2021/04/09 09:34:36;;;;;;;5.75;3.60;;;;;;;-145.19;100.00;59999.88;5009422;28;20041;-65
2021/04/09 09:37:07;;;;;;;5.28;3.63;;;;;;;-145.19;100.00;59999.88;4995063;28;20137;-65
2021/04/09 09:39:53;;;;;;;5.72;3.30;;;;;;;-145.19;100.00;59999.88;5005365;28;20050;-65
2021/04/09 09:42:28;;;;;;;6.22;3.30;;;;;;;-145.19;100.00;59999.88;5008588;28;20054;-66
2021/04/09 09:44:56;;;;;;;21.98;3.85;;;;;;;-145.19;100.00;59999.88;5005428;28;20053;-57
2021/04/09 09:47:26;;;;;;;5.18;3.22;;;;;;;-145.19;100.00;59999.88;4999238;28;20039;-57
2021/04/09 09:50:10;;;;;;;9.32;4.00;;;;;;;-145.19;100.00;59999.88;5006732;28;20090;-65
2021/04/09 09:52:55;;;;;;;10.05;3.80;;;;;;;-145.19;100.00;59999.88;5026910;28;20422;-66
2021/04/09 09:55:28;;;;;;;6.50;3.70;;;;;;;-145.19;100.00;59999.88;5005965;28;20041;-65
2021/04/09 09:58:02;;;;;;;4.32;3.05;;;;;;;-145.19;100.00;59999.88;5006718;28;20074;-65
2021/04/09 10:00:40;;;;;;;192.10;12.48;;;;;;;-145.19;100.00;59999.88;5014664;28;20104;-65
2021/04/09 10:03:33;;;;;;;5.68;2.95;;;;;;;-145.19;100.00;59999.88;5005138;28;20479;-65
2021/04/09 10:06:03;;;;;;;6.50;3.25;;;;;;;-145.19;100.00;59999.88;5006750;28;20066;-65
2021/04/09 10:08:34;;;;;;;5.57;3.25;;;;;;;-145.19;100.00;59999.88;5002558;28;20046;-65
2021/04/09 10:11:14;;;;;;;4.18;2.30;;;;;;;-145.19;100.00;59999.88;5005261;28;20050;-66
2021/04/09 10:13:42;;;;;;;4.63;2.42;;;;;;;-145.19;100.00;59999.88;5005908;28;20100;-65
2021/04/09 10:16:26;;;;;;;4.07;2.30;;;;;;;-145.19;100.00;59999.88;5007896;28;20038;-65
2021/04/09 10:18:56;;;;;;;64.50;5.35;;;;;;;-145.19;100.00;59999.88;5006094;28;20112;-65
2021/04/09 10:21:30;;;;;;;3.50;2.25;;;;;;;-145.19;100.00;59999.88;5008894;28;20506;-66
2021/04/09 10:24:16;;;;;;;3.08;2.22;;;;;;;-145.19;100.00;59999.88;5006997;28;20129;-67
2021/04/09 10:27:03;;;;;;;10.35;2.80;;;;;;;-145.19;100.00;59999.88;5006081;28;20529;-64
2021/04/09 10:29:34;;;;;;;3.28;2.20;;;;;;;-145.19;100.00;59999.88;5004703;28;20037;-66
2021/04/09 10:32:02;;;;;;;8.75;2.08;;;;;;;-145.19;100.00;59999.88;5007467;28;20038;-68
2021/04/09 10:34:31;;;;;;;5.95;2.75;;;;;;;-145.19;100.00;59999.88;5006696;28;20048;-66
2021/04/09 10:36:57;;;;;;;2.20;2.00;;;;;;;-145.19;100.00;59999.88;5003340;28;20050;-61
2021/04/09 10:39:25;;;;;;;5.20;2.38;;;;;;;-145.19;100.00;59999.88;5011053;28;20048;-68
2021/04/09 10:41:53;;;;;;;5.03;1.90;;;;;;;-145.19;100.00;59999.88;5005256;28;20065;-65
2021/04/09 10:44:28;;;;;;;2.35;1.30;;;;;;;-145.19;100.00;59999.88;5004839;28;20128;-67
2021/04/09 10:46:57;;;;;;;6.57;1.73;;;;;;;-145.19;100.00;59999.88;5001361;28;20057;-69
2021/04/09 10:49:29;;;;;;;3.47;1.67;;;;;;;-145.19;100.00;59999.88;5008624;28;20045;-68
2021/04/09 10:51:58;;;;;;;3.35;1.92;;;;;;;-145.19;100.00;59999.88;5002658;28;20049;-68
2021/04/09 10:54:28;;;;;;;3.13;1.50;;;;;;;-145.19;100.00;59999.88;5005507;28;20077;-68
2021/04/09 10:56:59;;;;;;;4.35;1.80;;;;;;;-145.19;100.00;59999.88;5009980;28;20038;-67
2021/04/09 10:59:27;;;;;;;7.85;2.42;;;;;;;-145.19;100.00;59999.88;5007418;28;20545;-68
2021/04/09 11:01:54;;;;;;;2.10;1.80;;;;;;;-145.19;100.00;59999.88;5004959;28;20060;-67
2021/04/09 11:04:22;;;;;;;3.30;1.90;;;;;;;-145.19;100.00;59999.88;5010112;28;20108;-71
2021/04/09 11:06:58;;;;;;;2.83;1.60;;;;;;;-145.19;100.00;59999.88;5006050;28;20118;-71
2021/04/09 11:09:37;;;;;;;11.00;2.00;;;;;;;-145.19;100.00;59999.88;5010515;28;20110;-73
2021/04/09 11:12:22;;;;;;;15.35;2.28;;;;;;;-145.19;100.00;59999.88;5008199;28;20692;-69